createdAt,value
2022-11-17T00:00:34.945Z,99789.81
2022-11-17T00:03:01.851Z,99787.34
2022-11-17T00:05:28.699Z,99784.19
2022-11-17T00:07:55.616Z,99788.03
2022-11-17T00:10:22.641Z,99795.31
2022-11-17T00:13:08.332Z,99782.91
2022-11-17T00:15:35.214Z,99788.66
2022-11-17T00:18:20.813Z,99792.75
2022-11-17T00:21:06.617Z,99781.69
2022-11-17T00:23:49.397Z,99781.78
2022-11-17T00:26:16.930Z,99776.91
2022-11-17T00:28:44.029Z,99781.22
2022-11-17T00:31:30.195Z,99783.94
2022-11-17T00:34:06.997Z,99776.81
2022-11-17T00:36:38.358Z,99772.97
2022-11-17T00:39:05.855Z,99783.94
2022-11-17T00:41:32.990Z,99776.22
2022-11-17T00:44:00.250Z,99775.56
2022-11-17T00:46:27.415Z,99760.81
2022-11-17T00:48:54.566Z,99774.88
2022-11-17T00:51:21.745Z,99769.63
2022-11-17T00:53:50.763Z,99768.31
2022-11-17T00:56:17.973Z,99762.19
2022-11-17T00:58:45.090Z,99761.28
2022-11-17T01:01:12.020Z,99760.66
2022-11-17T01:03:38.807Z,99763.28
2022-11-17T01:06:06.594Z,99757.03
2022-11-17T01:08:34.630Z,99754.31
2022-11-17T01:11:11.269Z,99765.38
2022-11-17T01:13:38.586Z,99763.06
2022-11-17T01:16:06.548Z,99749.75
2022-11-17T01:18:33.703Z,99753.72
2022-11-17T01:21:19.842Z,99750.53
2022-11-17T01:23:47.537Z,99748.31
2022-11-17T01:26:16.598Z,99749.31
2022-11-17T01:28:49.527Z,99745.06
2022-11-17T01:31:32.636Z,99740.16
2022-11-17T01:34:02.444Z,99752.22
2022-11-17T01:37:00.418Z,99743.97
2022-11-17T01:42:49.805Z,99729.97
2022-11-17T01:45:23.801Z,99735.84
2022-11-17T01:48:01.242Z,99735.41
2022-11-17T01:50:42.678Z,99732.19
2022-11-17T01:53:15.901Z,99729.50
2022-11-17T01:55:51.087Z,99728.91
2022-11-17T01:58:39.148Z,99720.16
2022-11-17T02:01:18.233Z,99712.06
2022-11-17T02:04:13.083Z,99714.22
2022-11-17T02:06:39.945Z,99718.41
2022-11-17T02:09:06.866Z,99718.78
2022-11-17T02:11:50.154Z,99723.19
2022-11-17T02:14:45.680Z,99720.16
2022-11-17T02:17:44.659Z,99727.97
2022-11-17T02:20:14.235Z,99729.53
2022-11-17T02:23:19.017Z,99716.13
2022-11-17T02:26:08.404Z,99719.00
2022-11-17T02:28:46.463Z,99721.41
2022-11-17T02:31:32.608Z,99721.78
2022-11-17T02:34:21.929Z,99709.81
2022-11-17T02:44:40.278Z,99710.25
2022-11-17T02:50:54.262Z,99712.22
2022-11-17T02:53:25.115Z,99708.63
2022-11-17T02:56:47.326Z,99698.97
2022-11-17T02:59:46.363Z,99704.47
2022-11-17T03:05:47.426Z,99688.78
2022-11-17T03:08:40.266Z,99688.78
2022-11-17T03:12:10.538Z,99690.72
2022-11-17T03:15:31.404Z,99687.50
2022-11-17T03:18:24.419Z,99680.34
2022-11-17T03:21:23.538Z,99679.56
2022-11-17T03:24:24.781Z,99682.63
2022-11-17T03:27:04.139Z,99684.22
2022-11-17T03:30:07.838Z,99689.50
2022-11-17T03:36:09.431Z,99687.16
2022-11-17T03:39:08.468Z,99676.88
2022-11-17T03:42:16.188Z,99678.19
2022-11-17T03:44:46.090Z,99673.31
2022-11-17T03:50:31.553Z,99676.25
2022-11-17T03:57:01.066Z,99661.88
2022-11-17T03:59:59.028Z,99657.09
2022-11-17T04:02:54.112Z,99659.34
2022-11-17T04:05:44.790Z,99652.63
2022-11-17T04:08:52.952Z,99661.50
2022-11-17T04:12:10.503Z,99664.66
2022-11-17T04:15:06.109Z,99662.13
2022-11-17T04:24:31.638Z,99660.88
2022-11-17T04:27:57.345Z,99643.72
2022-11-17T04:30:58.351Z,99648.47
2022-11-17T04:46:20.613Z,99646.50
2022-11-17T04:49:24.567Z,99649.25
2022-11-17T04:52:16.281Z,99646.09
2022-11-17T04:56:02.393Z,99636.22
2022-11-17T05:19:41.604Z,99623.16
2022-11-17T05:28:48.983Z,99622.00
2022-11-17T05:31:31.698Z,99628.63
2022-11-17T05:34:03.267Z,99619.59
2022-11-17T06:23:15.430Z,99588.25
2022-11-17T07:01:17.128Z,99577.31
2022-11-17T07:03:44.070Z,99576.28
2022-11-17T07:06:10.945Z,99573.09
2022-11-17T07:08:40.394Z,99556.06
2022-11-17T07:11:10.949Z,99553.66
2022-11-17T07:13:37.714Z,99568.19
2022-11-17T07:16:09.409Z,99564.19
2022-11-17T07:18:37.104Z,99568.19
2022-11-17T07:24:59.697Z,99559.53
2022-11-17T07:45:31.823Z,99560.91
2022-11-17T08:01:52.075Z,99560.13
2022-11-17T08:04:20.863Z,99563.09
2022-11-17T08:06:49.615Z,99558.59
2022-11-17T08:09:18.156Z,99553.94
2022-11-17T08:11:46.197Z,99563.69
2022-11-17T08:14:14.788Z,99563.88
2022-11-17T08:16:43.567Z,99552.75
2022-11-17T08:19:12.342Z,99556.47
2022-11-17T08:21:41.833Z,99571.06
2022-11-17T08:24:10.323Z,99563.78
2022-11-17T08:26:39.344Z,99564.63
2022-11-17T08:29:08.349Z,99577.25
2022-11-17T08:31:36.997Z,99571.84
2022-11-17T08:34:05.238Z,99570.16
2022-11-17T08:36:32.560Z,99567.19
2022-11-17T08:39:00.439Z,99558.09
2022-11-17T08:41:28.778Z,99565.91
2022-11-17T08:43:57.553Z,99556.66
2022-11-17T08:46:32.466Z,99549.59
2022-11-17T08:49:01.557Z,99557.38
2022-11-17T08:51:31.854Z,99541.34
2022-11-17T08:54:13.982Z,99543.09
2022-11-17T08:56:43.405Z,99549.19
2022-11-17T08:59:12.475Z,99541.81
2022-11-17T09:01:48.634Z,99545.03
2022-11-17T09:14:45.567Z,99560.91
2022-11-17T09:17:52.244Z,99564.88
2022-11-17T09:20:45.509Z,99555.78
2022-11-17T09:23:13.161Z,99554.00
2022-11-17T09:25:40.213Z,99561.91
2022-11-17T09:28:07.017Z,99554.25
2022-11-17T09:30:34.217Z,99553.00
2022-11-17T09:33:01.535Z,99563.75
2022-11-17T09:35:28.757Z,99547.06
2022-11-17T09:37:58.915Z,99550.88
2022-11-17T09:40:25.653Z,99554.84
2022-11-17T09:42:52.792Z,99543.13
2022-11-17T09:45:23.386Z,99545.94
2022-11-17T09:47:52.429Z,99539.56
2022-11-17T09:50:29.953Z,99543.13
2022-11-17T09:53:10.085Z,99539.56
2022-11-17T09:55:38.070Z,99538.88
2022-11-17T09:58:11.388Z,99546.78
2022-11-17T10:00:39.326Z,99542.28
2022-11-17T10:03:17.810Z,99536.84
2022-11-17T10:05:45.211Z,99537.22
2022-11-17T10:08:13.804Z,99529.94
2022-11-17T10:10:48.475Z,99546.88
2022-11-17T10:13:24.331Z,99530.16
2022-11-17T10:16:01.537Z,99539.06
2022-11-17T10:18:31.453Z,99534.47
2022-11-17T10:21:01.092Z,99537.03
2022-11-17T10:23:29.536Z,99534.47
2022-11-17T10:25:57.576Z,99531.66
2022-11-17T10:28:25.091Z,99534.47
2022-11-17T10:30:56.492Z,99534.38
2022-11-17T10:33:43.967Z,99525.81
2022-11-17T10:36:17.967Z,99528.44
2022-11-17T10:38:46.009Z,99523.78
2022-11-17T10:41:13.777Z,99523.97
2022-11-17T10:43:42.898Z,99520.31
2022-11-17T10:46:14.360Z,99522.94
2022-11-17T10:48:53.700Z,99516.16
2022-11-17T10:51:20.630Z,99525.28
2022-11-17T10:54:07.320Z,99509.88
2022-11-17T10:56:39.050Z,99516.56
2022-11-17T10:59:17.012Z,99513.25
2022-11-17T11:01:45.168Z,99507.81
2022-11-17T11:04:29.298Z,99507.44
2022-11-17T11:07:11.590Z,99502.19
2022-11-17T11:09:58.469Z,99496.75
2022-11-17T11:12:26.784Z,99495.06
2022-11-17T11:14:54.218Z,99485.91
2022-11-17T11:17:20.824Z,99485.72
2022-11-17T11:19:50.848Z,99491.66
2022-11-17T11:22:21.226Z,99488.34
2022-11-17T11:24:54.989Z,99480.16
2022-11-17T11:27:40.591Z,99464.69
2022-11-17T11:30:10.287Z,99476.78
2022-11-17T11:32:55.488Z,99476.69
2022-11-17T11:35:22.079Z,99453.34
2022-11-17T11:37:52.973Z,99466.69
2022-11-17T11:40:22.429Z,99459.44
2022-11-17T11:43:00.927Z,99466.16
2022-11-17T11:45:41.729Z,99461.81
2022-11-17T11:48:14.677Z,99450.81
2022-11-17T11:50:44.356Z,99441.41
2022-11-17T11:53:29.931Z,99448.00
2022-11-17T11:56:06.053Z,99436.88
2022-11-17T11:58:32.705Z,99439.88
2022-11-17T12:01:03.276Z,99425.13
2022-11-17T12:03:39.695Z,99436.72
2022-11-17T12:06:28.158Z,99444.63
2022-11-17T12:08:56.630Z,99436.63
2022-11-17T12:11:42.247Z,99435.22
2022-11-17T12:14:11.763Z,99438.41
2022-11-17T12:16:40.257Z,99442.91
2022-11-17T12:19:26.844Z,99437.75
2022-11-17T12:21:56.376Z,99446.97
2022-11-17T12:24:27.424Z,99454.03
2022-11-17T12:26:55.166Z,99454.75
2022-11-17T12:29:22.702Z,99446.88
2022-11-17T12:31:51.475Z,99438.25
2022-11-17T12:34:26.978Z,99449.41
2022-11-17T12:37:13.378Z,99448.22
2022-11-17T12:39:59.431Z,99445.41
2022-11-17T12:42:31.216Z,99439.59
2022-11-17T12:45:02.052Z,99443.16
2022-11-17T12:47:34.532Z,99439.94
2022-11-17T12:50:08.460Z,99439.13
2022-11-17T12:52:38.207Z,99436.75
2022-11-17T12:55:17.431Z,99428.94
2022-11-17T12:57:44.387Z,99436.09
2022-11-17T13:00:21.140Z,99436.34
2022-11-17T13:02:54.848Z,99438.63
2022-11-17T13:05:22.285Z,99434.28
2022-11-17T13:07:48.925Z,99433.72
2022-11-17T13:10:31.246Z,99433.47
2022-11-17T13:13:15.607Z,99424.63
2022-11-17T13:15:42.808Z,99428.63
2022-11-17T13:18:18.248Z,99432.09
2022-11-17T13:20:46.322Z,99434.47
2022-11-17T13:23:15.016Z,99436.34
2022-11-17T13:25:42.002Z,99444.81
2022-11-17T13:28:25.085Z,99444.75
2022-11-17T13:30:51.665Z,99428.72
2022-11-17T13:33:20.267Z,99433.16
2022-11-17T13:35:46.917Z,99435.38
2022-11-17T13:38:21.132Z,99436.03
2022-11-17T13:40:51.239Z,99442.28
2022-11-17T13:43:19.929Z,99434.59
2022-11-17T13:45:50.118Z,99438.41
2022-11-17T13:48:35.808Z,99437.06
2022-11-17T13:51:18.081Z,99441.16
2022-11-17T13:53:55.252Z,99436.34
2022-11-17T13:56:26.488Z,99443.28
2022-11-17T13:58:53.208Z,99442.19
2022-11-17T14:01:24.354Z,99440.47
2022-11-17T14:03:51.371Z,99452.38
2022-11-17T14:06:18.133Z,99448.66
2022-11-17T14:09:01.767Z,99436.28
2022-11-17T14:11:28.439Z,99433.22
2022-11-17T14:13:58.897Z,99438.31
2022-11-17T14:16:29.504Z,99432.38
2022-11-17T14:18:57.693Z,99418.53
2022-11-17T14:21:24.321Z,99396.09
2022-11-17T14:23:50.952Z,99414.22
2022-11-17T14:26:21.901Z,99423.56
2022-11-17T14:28:49.367Z,99428.66
2022-11-17T14:31:16.022Z,99430.19
2022-11-17T14:33:42.681Z,99421.19
2022-11-17T14:36:13.607Z,99429.09
2022-11-17T14:38:40.357Z,99435.97
2022-11-17T14:41:07.182Z,99420.50
2022-11-17T14:43:33.878Z,99429.50
2022-11-17T14:46:00.539Z,99431.91
2022-11-17T14:48:27.312Z,99436.38
2022-11-17T14:50:57.605Z,99430.53
2022-11-17T14:53:25.270Z,99436.88
2022-11-17T14:55:52.168Z,99423.81
2022-11-17T14:58:18.851Z,99425.78
2022-11-17T15:00:45.484Z,99428.69
2022-11-17T15:03:12.249Z,99433.16
2022-11-17T15:05:43.337Z,99422.00
2022-11-17T15:08:10.539Z,99426.88
2022-11-17T15:10:37.193Z,99427.38
2022-11-17T15:13:03.874Z,99416.56
2022-11-17T15:15:30.540Z,99427.91
2022-11-17T15:17:57.135Z,99420.53
2022-11-17T15:20:23.964Z,99425.28
2022-11-17T15:22:50.560Z,99426.22
2022-11-17T15:25:17.231Z,99417.75
2022-11-17T15:27:43.871Z,99415.97
2022-11-17T16:04:10.345Z,99406.72
2022-11-17T16:10:09.861Z,99414.63
2022-11-17T16:15:47.958Z,99409.19
2022-11-17T16:19:19.471Z,99400.38
2022-11-17T16:29:09.076Z,99410.97
2022-11-17T16:31:36.296Z,99419.69
2022-11-17T16:34:15.741Z,99409.38
2022-11-17T16:36:43.045Z,99408.34
2022-11-17T16:39:17.791Z,99413.31
2022-11-17T16:41:45.686Z,99402.22
2022-11-17T16:44:13.138Z,99401.19
2022-11-17T16:46:41.567Z,99400.19
2022-11-17T16:49:09.841Z,99390.88
2022-11-17T16:51:36.465Z,99403.59
2022-11-17T16:54:06.608Z,99397.31
2022-11-17T16:56:33.645Z,99396.31
2022-11-17T16:59:00.433Z,99396.13
2022-11-17T17:01:28.646Z,99398.47
2022-11-17T17:03:58.150Z,99403.41
2022-11-17T17:06:24.999Z,99398.56
2022-11-17T17:09:20.625Z,99399.69
2022-11-17T17:11:51.369Z,99409.69
2022-11-17T17:14:18.040Z,99418.50
2022-11-17T17:16:44.673Z,99396.72
2022-11-17T17:19:11.723Z,99415.97
2022-11-17T17:21:41.215Z,99410.19
2022-11-17T17:24:07.987Z,99420.03
2022-11-17T17:26:35.269Z,99412.31
2022-11-17T17:29:02.396Z,99424.25
2022-11-17T17:31:30.704Z,99432.22
2022-11-17T17:33:57.453Z,99415.03
2022-11-17T17:36:24.741Z,99413.50
2022-11-17T17:38:55.360Z,99413.50
2022-11-17T17:41:25.876Z,99415.97
2022-11-17T17:43:57.264Z,99412.50
2022-11-17T17:46:23.924Z,99421.53
2022-11-17T17:48:50.550Z,99424.25
2022-11-17T17:51:18.379Z,99431.31
2022-11-17T17:53:45.088Z,99416.06
2022-11-17T17:56:12.976Z,99418.59
2022-11-17T17:58:42.675Z,99430.38
2022-11-17T18:01:12.287Z,99423.94
2022-11-17T18:03:39.415Z,99421.91
2022-11-17T18:06:06.156Z,99423.94
2022-11-17T18:08:36.422Z,99433.50
2022-11-17T18:11:04.401Z,99421.63
2022-11-17T18:13:31.704Z,99423.75
2022-11-17T18:15:59.184Z,99412.72
2022-11-17T18:18:25.823Z,99423.16
2022-11-17T18:21:05.385Z,99424.25
2022-11-17T18:23:34.374Z,99415.34
2022-11-17T18:26:08.541Z,99418.84
2022-11-17T18:28:35.437Z,99410.09
2022-11-17T18:31:04.298Z,99417.66
2022-11-17T18:33:31.068Z,99419.38
2022-11-17T18:35:57.903Z,99431.41
2022-11-17T18:38:27.465Z,99422.13
2022-11-17T18:41:01.684Z,99417.25
2022-11-17T18:43:29.754Z,99426.72
2022-11-17T18:46:00.373Z,99427.25
2022-11-17T18:48:27.069Z,99427.13
2022-11-17T18:51:18.297Z,99431.38
2022-11-17T18:53:40.822Z,99426.28
2022-11-17T18:56:08.554Z,99440.50
2022-11-17T18:58:37.517Z,99432.72
2022-11-17T19:01:08.346Z,99451.22
2022-11-17T19:03:35.464Z,99432.81
2022-11-17T19:06:02.637Z,99435.31
2022-11-17T19:08:30.444Z,99443.50
2022-11-17T19:11:00.791Z,99437.22
2022-11-17T19:13:33.859Z,99436.88
2022-11-17T19:16:19.201Z,99443.88
2022-11-17T19:18:48.785Z,99433.50
2022-11-17T19:21:16.280Z,99427.94
2022-11-17T19:23:49.662Z,99429.13
2022-11-17T19:26:19.334Z,99434.03
2022-11-17T19:28:55.219Z,99427.63
2022-11-17T19:31:36.143Z,99423.94
2022-11-17T19:34:25.080Z,99433.25
2022-11-17T19:36:56.202Z,99427.31
2022-11-17T19:39:22.837Z,99434.91
2022-11-17T19:41:49.500Z,99436.09
2022-11-17T19:44:16.224Z,99436.28
2022-11-17T19:46:43.425Z,99440.16
2022-11-17T19:49:10.617Z,99442.06
2022-11-17T19:51:37.467Z,99442.91
2022-11-17T19:54:04.997Z,99446.47
2022-11-17T19:56:31.755Z,99449.09
2022-11-17T19:58:58.471Z,99444.56
2022-11-17T20:01:29.099Z,99447.94
2022-11-17T20:03:56.804Z,99448.28
2022-11-17T20:06:29.956Z,99448.03
2022-11-17T20:09:01.386Z,99440.47
2022-11-17T20:11:28.673Z,99450.28
2022-11-17T20:13:55.759Z,99450.28
2022-11-17T20:16:26.830Z,99455.44
2022-11-17T20:18:54.914Z,99465.16
2022-11-17T20:21:21.865Z,99456.06
2022-11-17T20:23:48.684Z,99463.47
2022-11-17T20:26:19.714Z,99453.09
2022-11-17T20:28:49.037Z,99455.44
2022-11-17T20:31:16.810Z,99455.97
2022-11-17T20:33:43.567Z,99453.19
2022-11-17T20:36:14.553Z,99464.75
2022-11-17T20:38:41.471Z,99463.59
2022-11-17T20:41:10.677Z,99465.13
2022-11-17T20:43:39.470Z,99455.66
2022-11-17T20:46:06.513Z,99458.34
2022-11-17T20:48:35.393Z,99458.59
2022-11-17T20:52:58.626Z,99458.72
2022-11-17T20:54:15.976Z,99449.72
2022-11-17T20:56:51.041Z,99464.50
2022-11-17T20:59:20.214Z,99460.31
2022-11-17T21:01:49.256Z,99469.38
2022-11-17T21:04:15.917Z,99471.84
2022-11-17T21:06:42.592Z,99474.50
2022-11-17T21:09:09.774Z,99462.34
2022-11-17T21:11:56.176Z,99471.06
2022-11-17T21:14:25.966Z,99461.84
2022-11-17T21:16:55.478Z,99464.69
2022-11-17T21:19:22.265Z,99470.72
2022-11-17T21:21:49.810Z,99465.53
2022-11-17T21:24:16.539Z,99471.16
2022-11-17T21:26:43.334Z,99468.91
2022-11-17T21:29:10.381Z,99475.97
2022-11-17T21:31:37.468Z,99480.50
2022-11-17T21:34:07.613Z,99483.41
2022-11-17T21:36:35.023Z,99484.56
2022-11-17T21:39:01.786Z,99475.00
2022-11-17T21:41:29.614Z,99486.09
2022-11-17T21:43:58.256Z,99480.84
2022-11-17T21:46:26.234Z,99479.84
2022-11-17T21:48:53.757Z,99474.94
2022-11-17T21:51:21.666Z,99479.00
2022-11-17T21:53:52.221Z,99478.91
2022-11-17T21:56:18.889Z,99480.34
2022-11-17T21:58:45.491Z,99474.78
2022-11-17T22:01:13.187Z,99474.75
2022-11-17T22:03:40.543Z,99470.19
2022-11-17T22:06:14.180Z,99475.09
2022-11-17T22:08:41.900Z,99470.84
2022-11-17T22:11:09.651Z,99477.16
2022-11-17T22:13:36.519Z,99477.59
2022-11-17T22:16:08.721Z,99483.81
2022-11-17T22:18:35.523Z,99484.50
2022-11-17T22:21:02.248Z,99485.50
2022-11-17T22:23:29.082Z,99488.78
2022-11-17T22:26:04.580Z,99489.75
2022-11-17T22:28:33.548Z,99495.13
2022-11-17T22:31:04.427Z,99492.25
2022-11-17T22:33:31.068Z,99493.81
2022-11-17T22:36:07.019Z,99495.56
2022-11-17T22:38:33.656Z,99493.94
2022-11-17T22:41:03.846Z,99487.22
2022-11-17T22:43:30.552Z,99485.38
2022-11-17T22:45:57.288Z,99486.09
2022-11-17T22:48:24.382Z,99499.41
2022-11-17T22:50:51.191Z,99493.25
2022-11-17T22:53:17.993Z,99493.81
2022-11-17T22:55:44.911Z,99494.88
2022-11-17T22:58:11.629Z,99503.00
2022-11-17T23:00:38.420Z,99507.75
2022-11-17T23:03:05.219Z,99498.84
2022-11-17T23:05:32.002Z,99497.94
2022-11-17T23:07:58.622Z,99500.75
2022-11-17T23:10:25.589Z,99508.88
2022-11-17T23:12:52.273Z,99510.81
2022-11-17T23:15:19.277Z,99521.22
2022-11-17T23:17:46.643Z,99508.19
2022-11-17T23:20:13.388Z,99517.94
2022-11-17T23:22:40.038Z,99520.34
2022-11-17T23:25:06.964Z,99526.56
2022-11-17T23:27:33.594Z,99519.00
2022-11-17T23:30:00.313Z,99513.75
2022-11-17T23:32:26.897Z,99525.75
2022-11-17T23:34:53.509Z,99516.25
2022-11-17T23:37:20.557Z,99527.66
2022-11-17T23:39:47.173Z,99537.06
2022-11-17T23:42:13.816Z,99537.63
2022-11-17T23:44:40.381Z,99540.56
2022-11-17T23:47:07.036Z,99537.72
2022-11-17T23:49:33.591Z,99533.16
2022-11-17T23:52:00.255Z,99537.72
2022-11-17T23:54:27.190Z,99539.63
2022-11-17T23:56:53.764Z,99539.41
2022-11-17T23:59:20.897Z,99533.47
